^^
Station Historical Data
Daily Summary for February 7, 2017 Units:  English    Metric   Both
« Previous Day
Next Day »
Daily Weekly Monthly Yearly Custom
  High: Low: Average:
Temperature: 38.2 °F 32.6 °F 35.5 °F
Dew Point: 36.6 °F 26.6 °F 32.8 °F
Humidity: 95 % 75 % 90 %
Wind Speed: 8.5 mph 0.0 mph 1.8 mph
Wind Gust: 11.5 mph - -
Wind:- - NE
Pressure: 29.98 in 29.58 in -
Precipitation: 0.37 in    
Historical Graphs
 
 
Tabular Data for February 7, 2017
Time Temperature Dew Point Pressure Wind Wind Speed Wind Gust Humidity Rainfall Rate (Hourly) solar Conditions
00:02 34.6 °F 27.8 °F 29.98 in Calm     76 % 0.00 in 0.0 W/m2 CLR
00:07 34.5 °F 27.7 °F 29.98 in Calm     76 % 0.00 in 0.0 W/m2 CLR
00:12 34.5 °F 27.7 °F 29.98 in West 2.7 mph 3.5 mph 76 % 0.00 in 0.0 W/m2 CLR
00:17 34.7 °F 27.9 °F 29.98 in Calm     76 % 0.00 in 0.0 W/m2 CLR
00:22 34.6 °F 27.8 °F 29.98 in WNW 0.1 mph 2.3 mph 76 % 0.00 in 0.0 W/m2 CLR
00:27 34.7 °F 27.9 °F 29.98 in WNW 0.1 mph 1.0 mph 76 % 0.00 in 0.0 W/m2 CLR
00:32 34.8 °F 28.0 °F 29.98 in Calm     76 % 0.00 in 0.0 W/m2 CLR
00:37 34.7 °F 27.6 °F 29.97 in Calm     75 % 0.00 in 0.0 W/m2 CLR
00:42 34.7 °F 27.9 °F 29.98 in Calm     76 % 0.00 in 0.0 W/m2 CLR
00:47 34.7 °F 27.9 °F 29.98 in Calm     76 % 0.00 in 0.0 W/m2 CLR
00:52 34.7 °F 27.6 °F 29.97 in Calm     75 % 0.00 in 0.0 W/m2 CLR
00:57 34.5 °F 27.7 °F 29.97 in Calm     76 % 0.00 in 0.0 W/m2 CLR
01:03 34.4 °F 27.6 °F 29.96 in Calm     76 % 0.00 in 0.0 W/m2 CLR
01:08 34.3 °F 27.5 °F 29.96 in Calm     76 % 0.00 in 0.0 W/m2 CLR
01:13 34.2 °F 27.4 °F 29.96 in Calm     76 % 0.00 in 0.0 W/m2 CLR
01:18 34.4 °F 27.6 °F 29.96 in Calm     76 % 0.00 in 0.0 W/m2 CLR
01:23 34.3 °F 27.5 °F 29.96 in Calm     76 % 0.00 in 0.0 W/m2 CLR
01:28 34.1 °F 27.3 °F 29.96 in Calm     76 % 0.00 in 0.0 W/m2 CLR
01:33 33.8 °F 27.0 °F 29.95 in Calm     76 % 0.00 in 0.0 W/m2 CLR
01:38 33.8 °F 27.4 °F 29.95 in Calm     77 % 0.00 in 0.0 W/m2 CLR
01:43 33.7 °F 27.3 °F 29.96 in Calm     77 % 0.00 in 0.0 W/m2 CLR
01:48 33.5 °F 27.1 °F 29.95 in Calm     77 % 0.00 in 0.0 W/m2 CLR
01:53 33.2 °F 26.8 °F 29.95 in Calm     77 % 0.00 in 0.0 W/m2 CLR
01:58 33.1 °F 27.0 °F 29.95 in Calm     78 % 0.00 in 0.0 W/m2 CLR
02:03 33.3 °F 27.2 °F 29.95 in Calm     78 % 0.00 in 0.0 W/m2 CLR
02:08 33.2 °F 27.1 °F 29.95 in Calm     78 % 0.00 in 0.0 W/m2 CLR
02:13 32.7 °F 26.6 °F 29.95 in Calm     78 % 0.00 in 0.0 W/m2 CLR
02:18 32.8 °F 27.0 °F 29.95 in Calm     79 % 0.00 in 0.0 W/m2 CLR
02:23 32.7 °F 26.9 °F 29.94 in Calm     79 % 0.00 in 0.0 W/m2 CLR
02:28 32.9 °F 27.1 °F 29.94 in Calm     79 % 0.00 in 0.0 W/m2 CLR
02:33 32.9 °F 27.1 °F 29.94 in Calm     79 % 0.00 in 0.0 W/m2 CLR
02:38 32.9 °F 27.1 °F 29.94 in Calm     79 % 0.00 in 0.0 W/m2 CLR
02:43 32.7 °F 26.9 °F 29.94 in Calm     79 % 0.00 in 0.0 W/m2 CLR
02:48 32.6 °F 27.1 °F 29.93 in Calm     80 % 0.00 in 0.0 W/m2 CLR
02:53 33.0 °F 27.5 °F 29.93 in Calm     80 % 0.00 in 0.0 W/m2 CLR
02:58 33.2 °F 27.7 °F 29.93 in Calm     80 % 0.00 in 0.0 W/m2 CLR
03:03 33.6 °F 28.1 °F 29.93 in Calm     80 % 0.00 in 0.0 W/m2 CLR
03:08 33.8 °F 28.3 °F 29.93 in Calm     80 % 0.00 in 0.0 W/m2 CLR
03:13 33.9 °F 28.1 °F 29.93 in Calm     79 % 0.00 in 0.0 W/m2 CLR
03:18 34.1 °F 28.3 °F 29.93 in Calm     79 % 0.00 in 0.0 W/m2 CLR
03:23 34.3 °F 28.5 °F 29.93 in WNW 0.8 mph 3.5 mph 79 % 0.00 in 0.0 W/m2 CLR
03:28 34.4 °F 28.6 °F 29.93 in Calm     79 % 0.00 in 0.0 W/m2 CLR
03:33 34.7 °F 29.2 °F 29.93 in Calm   2.3 mph 80 % 0.00 in 0.0 W/m2 CLR
03:38 34.9 °F 29.0 °F 29.92 in Calm   1.2 mph 79 % 0.00 in 0.0 W/m2 CLR
03:43 35.0 °F 29.5 °F 29.92 in Calm     80 % 0.00 in 0.0 W/m2 CLR
03:48 35.0 °F 29.5 °F 29.92 in Calm     80 % 0.00 in 0.0 W/m2 CLR
03:53 34.9 °F 29.7 °F 29.92 in Calm     81 % 0.00 in 0.0 W/m2 CLR
03:58 35.1 °F 29.9 °F 29.92 in Calm     81 % 0.00 in 0.0 W/m2 CLR
04:03 35.2 °F 30.0 °F 29.92 in Calm     81 % 0.00 in 0.0 W/m2 CLR
04:08 35.2 °F 30.0 °F 29.92 in Calm     81 % 0.00 in 0.0 W/m2 CLR
04:13 35.2 °F 30.3 °F 29.92 in WNW 1.3 mph 3.0 mph 82 % 0.00 in 0.0 W/m2 CLR
04:18 35.2 °F 30.3 °F 29.92 in Calm     82 % 0.00 in 0.0 W/m2 CLR
04:23 35.2 °F 30.3 °F 29.93 in Calm     82 % 0.01 in 0.0 W/m2 RA
04:28 35.2 °F 30.6 °F 29.94 in Calm     83 % 0.02 in 0.0 W/m2 RA
04:33 35.2 °F 30.9 °F 29.94 in Calm     84 % 0.03 in 0.0 W/m2 RA
04:38 35.1 °F 31.0 °F 29.93 in Calm     85 % 0.04 in 0.0 W/m2 RA
04:43 35.0 °F 30.9 °F 29.93 in Calm     85 % 0.06 in 0.0 W/m2 RA
04:48 34.8 °F 31.0 °F 29.92 in Calm   1.2 mph 86 % 0.07 in 0.0 W/m2 RA
04:54 34.6 °F 30.8 °F 29.93 in WNW 0.6 mph 1.0 mph 86 % 0.09 in 0.0 W/m2 RA
04:59 34.4 °F 30.9 °F 29.92 in NW 3.0 mph 3.5 mph 87 % 0.10 in 0.0 W/m2 RA
05:04 34.5 °F 31.0 °F 29.92 in NW 0.1 mph 2.3 mph 87 % 0.10 in 0.0 W/m2 RA
05:09 34.4 °F 30.9 °F 29.91 in Calm   1.2 mph 87 % 0.12 in 0.0 W/m2 RA
05:14 34.2 °F 31.0 °F 29.90 in NW 0.7 mph 2.3 mph 88 % 0.14 in 0.0 W/m2 RA
05:19 34.2 °F 31.0 °F 29.91 in NW 1.5 mph 4.6 mph 88 % 0.14 in 0.0 W/m2 RA
05:24 34.2 °F 31.0 °F 29.90 in North 1.3 mph 3.5 mph 88 % 0.13 in 0.0 W/m2
05:29 34.2 °F 31.3 °F 29.91 in Calm     89 % 0.10 in 0.0 W/m2
05:34 34.1 °F 31.2 °F 29.91 in North 0.6 mph 3.5 mph 89 % 0.10 in 0.0 W/m2
05:39 34.0 °F 31.1 °F 29.91 in Calm     89 % 0.09 in 0.0 W/m2
05:44 34.0 °F 31.1 °F 29.91 in Calm     89 % 0.07 in 0.0 W/m2
05:49 34.0 °F 31.1 °F 29.91 in Calm   1.2 mph 89 % 0.06 in 0.0 W/m2
05:54 34.0 °F 31.4 °F 29.91 in Calm     90 % 0.04 in 0.0 W/m2
05:59 34.0 °F 31.4 °F 29.91 in North 0.2 mph 2.0 mph 90 % 0.03 in 0.0 W/m2
06:04 34.1 °F 31.5 °F 29.91 in Calm     90 % 0.03 in 0.0 W/m2
06:09 34.1 °F 31.5 °F 29.91 in Calm     90 % 0.01 in 0.0 W/m2
06:14 34.0 °F 31.4 °F 29.91 in Calm     90 % 0.00 in 0.0 W/m2 CLR
06:19 34.0 °F 31.4 °F 29.91 in North 3.4 mph 4.6 mph 90 % 0.00 in 0.0 W/m2 CLR
06:24 34.0 °F 31.4 °F 29.90 in North 3.1 mph 4.0 mph 90 % 0.00 in 0.0 W/m2 CLR
06:29 33.9 °F 31.3 °F 29.90 in North 2.9 mph 3.5 mph 90 % 0.00 in 0.0 W/m2 CLR
06:34 33.8 °F 31.2 °F 29.90 in North 2.3 mph 3.5 mph 90 % 0.00 in 0.0 W/m2 CLR
06:39 33.8 °F 31.2 °F 29.90 in North 0.1 mph 2.0 mph 90 % 0.00 in 0.0 W/m2 CLR
06:44 33.8 °F 31.2 °F 29.90 in North 4.0 mph 6.9 mph 90 % 0.00 in 0.0 W/m2 CLR
06:49 33.9 °F 31.6 °F 29.92 in Calm     91 % 0.00 in 0.0 W/m2 CLR
06:54 34.0 °F 31.6 °F 29.91 in Calm     91 % 0.00 in 0.0 W/m2 CLR
06:59 33.9 °F 31.6 °F 29.91 in Calm     91 % 0.00 in 0.0 W/m2 CLR
07:04 33.9 °F 31.6 °F 29.90 in NNE 0.9 mph 3.5 mph 91 % 0.00 in 0.0 W/m2 CLR
07:09 33.9 °F 31.6 °F 29.89 in North 0.4 mph 2.0 mph 91 % 0.00 in 0.0 W/m2 CLR
07:14 34.0 °F 31.6 °F 29.90 in Calm     91 % 0.00 in 0.0 W/m2 CLR
07:19 33.8 °F 31.5 °F 29.90 in Calm     91 % 0.00 in 0.0 W/m2 CLR
07:24 33.9 °F 31.6 °F 29.91 in Calm     91 % 0.00 in 5.0 W/m2 CLR
07:29 34.0 °F 31.6 °F 29.91 in NNE 0.3 mph 3.0 mph 91 % 0.00 in 12.0 W/m2 CLR
07:34 34.0 °F 31.6 °F 29.90 in NNE 2.9 mph 4.6 mph 91 % 0.00 in 25.0 W/m2 CLR
07:39 34.0 °F 31.6 °F 29.89 in NNE 3.9 mph 4.6 mph 91 % 0.00 in 39.0 W/m2 CLR
07:44 33.8 °F 31.5 °F 29.90 in NNE 0.9 mph 3.5 mph 91 % 0.00 in 37.0 W/m2 CLR
07:49 34.0 °F 31.6 °F 29.91 in NNE 1.1 mph 3.5 mph 91 % 0.00 in 28.0 W/m2 CLR
07:54 34.0 °F 31.6 °F 29.91 in Calm     91 % 0.00 in 26.0 W/m2 SCT
07:59 34.0 °F 31.6 °F 29.91 in NNE 0.3 mph 2.3 mph 91 % 0.00 in 26.0 W/m2 BKN
08:04 34.1 °F 31.7 °F 29.91 in NNE 3.0 mph 4.0 mph 91 % 0.00 in 35.0 W/m2 BKN
08:09 34.2 °F 31.8 °F 29.91 in Calm   3.5 mph 91 % 0.00 in 28.0 W/m2 BKN
08:14 34.4 °F 32.0 °F 29.92 in NNE 0.2 mph 1.2 mph 91 % 0.00 in 26.0 W/m2 OVC
08:20 34.4 °F 32.0 °F 29.92 in Calm     91 % 0.00 in 23.0 W/m2 OVC
08:24 34.5 °F 32.1 °F 29.92 in NNE 1.1 mph 3.5 mph 91 % 0.00 in 25.0 W/m2 OVC
08:30 34.5 °F 32.1 °F 29.92 in NNE 1.7 mph 3.5 mph 91 % 0.00 in 30.0 W/m2 OVC
08:35 34.5 °F 32.1 °F 29.92 in NNE 1.4 mph 3.5 mph 91 % 0.00 in 28.0 W/m2 OVC
08:40 34.5 °F 32.1 °F 29.92 in Calm     91 % 0.00 in 21.0 W/m2 OVC
08:45 34.5 °F 32.1 °F 29.92 in NNE 0.3 mph 3.5 mph 91 % 0.00 in 19.0 W/m2 OVC
08:50 34.6 °F 32.2 °F 29.92 in NNE 1.0 mph 3.5 mph 91 % 0.00 in 18.0 W/m2 OVC
08:55 34.6 °F 32.2 °F 29.92 in NNE 1.0 mph 3.0 mph 91 % 0.00 in 21.0 W/m2 OVC
09:00 34.5 °F 32.1 °F 29.93 in NNE 1.1 mph 3.5 mph 91 % 0.01 in 21.0 W/m2 RA
09:05 34.5 °F 32.1 °F 29.93 in Calm     91 % 0.01 in 16.0 W/m2 RA
09:10 34.6 °F 32.2 °F 29.92 in NNE 3.4 mph 4.0 mph 91 % 0.01 in 9.0 W/m2 OVC
09:15 34.5 °F 32.1 °F 29.93 in Calm     91 % 0.01 in 12.0 W/m2 OVC
09:20 34.4 °F 32.0 °F 29.93 in Calm     91 % 0.02 in 16.0 W/m2 RA
09:25 34.4 °F 32.0 °F 29.93 in Calm   1.0 mph 91 % 0.03 in 14.0 W/m2 RA
09:30 34.2 °F 31.8 °F 29.93 in NNE 0.3 mph 2.3 mph 91 % 0.06 in 14.0 W/m2 RA
09:35 34.3 °F 31.9 °F 29.93 in NNE 0.3 mph 3.5 mph 91 % 0.07 in 14.0 W/m2 RA
09:40 34.4 °F 32.0 °F 29.92 in NNE 1.9 mph 3.5 mph 91 % 0.09 in 12.0 W/m2 RA
09:45 34.3 °F 31.9 °F 29.92 in NNE 3.3 mph 5.8 mph 91 % 0.12 in 12.0 W/m2 RA
09:50 34.2 °F 31.8 °F 29.91 in NNE 2.1 mph 4.6 mph 91 % 0.13 in 14.0 W/m2 RA
09:55 34.3 °F 31.9 °F 29.91 in NNE 2.2 mph 5.8 mph 91 % 0.15 in 14.0 W/m2 RA
10:00 34.3 °F 31.9 °F 29.91 in NNE 2.5 mph 3.5 mph 91 % 0.15 in 18.0 W/m2 RA
10:05 34.4 °F 32.0 °F 29.91 in Calm     91 % 0.16 in 21.0 W/m2 RA
10:10 34.4 °F 32.0 °F 29.89 in NNE 2.3 mph 4.6 mph 91 % 0.18 in 28.0 W/m2 RA
10:15 34.3 °F 32.2 °F 29.90 in NNE 2.5 mph 3.5 mph 92 % 0.17 in 32.0 W/m2 RA
10:20 34.3 °F 31.9 °F 29.87 in NE 1.0 mph 2.3 mph 91 % 0.17 in 51.0 W/m2 RA
10:24 34.3 °F 32.2 °F 29.88 in NE 3.0 mph 9.0 mph 92 % 0.02 in 47.0 W/m2 RA
10:32 34.3 °F 32.2 °F 29.88 in NNE 5.0 mph 5.0 mph 92 % 0.15 in 40.0 W/m2 RA
10:33 34.3 °F 32.2 °F 29.88 in NNE 5.0 mph 5.0 mph 92 % 0.15 in 42.0 W/m2 RA
10:38 34.3 °F 32.2 °F 29.89 in Calm     92 % 0.14 in 39.0 W/m2 RA
10:43 34.3 °F 32.2 °F 29.90 in Calm   2.3 mph 92 % 0.13 in 25.0 W/m2 OVC
10:48 34.5 °F 32.4 °F 29.90 in Calm     92 % 0.10 in 32.0 W/m2 OVC
10:53 34.4 °F 32.3 °F 29.91 in Calm     92 % 0.08 in 35.0 W/m2 OVC
10:58 34.5 °F 32.4 °F 29.91 in Calm     92 % 0.07 in 44.0 W/m2 OVC
11:03 34.5 °F 32.4 °F 29.91 in Calm     92 % 0.06 in 47.0 W/m2 OVC
11:08 34.7 °F 32.6 °F 29.89 in Calm   1.2 mph 92 % 0.04 in 93.0 W/m2 OVC
11:13 35.0 °F 33.2 °F 29.88 in NNE 1.5 mph 4.0 mph 93 % 0.03 in 109.0 W/m2 OVC
11:18 35.2 °F 33.4 °F 29.88 in NNE 2.0 mph 3.5 mph 93 % 0.02 in 90.0 W/m2 OVC
11:23 35.3 °F 33.5 °F 29.88 in NE 0.6 mph 3.5 mph 93 % 0.01 in 114.0 W/m2 OVC
11:28 35.3 °F 33.5 °F 29.88 in NNE 3.0 mph 4.6 mph 93 % 0.01 in 91.0 W/m2 OVC
11:33 35.6 °F 33.8 °F 29.88 in NNE 1.3 mph 3.5 mph 93 % 0.00 in 90.0 W/m2 OVC
11:38 35.5 °F 33.7 °F 29.88 in NNE 2.8 mph 3.5 mph 93 % 0.00 in 93.0 W/m2 OVC
11:43 35.6 °F 33.8 °F 29.88 in NNE 2.1 mph 4.0 mph 93 % 0.00 in 98.0 W/m2 OVC
11:48 35.7 °F 33.9 °F 29.87 in NNE 1.8 mph 3.5 mph 93 % 0.00 in 95.0 W/m2 OVC
11:53 35.8 °F 34.0 °F 29.87 in NNE 1.5 mph 3.5 mph 93 % 0.00 in 65.0 W/m2 OVC
11:58 35.8 °F 34.0 °F 29.87 in Calm   1.0 mph 93 % 0.00 in 81.0 W/m2 OVC
12:03 35.8 °F 34.0 °F 29.87 in NNE 1.9 mph 3.5 mph 93 % 0.00 in 76.0 W/m2 OVC
12:08 36.0 °F 34.2 °F 29.86 in NNE 3.5 mph 3.5 mph 93 % 0.00 in 42.0 W/m2 OVC
12:13 36.0 °F 34.2 °F 29.86 in NNE 0.5 mph 3.5 mph 93 % 0.00 in 28.0 W/m2 OVC
12:18 35.9 °F 34.1 °F 29.86 in NNE 0.3 mph 2.3 mph 93 % 0.00 in 25.0 W/m2 OVC
12:23 36.0 °F 34.2 °F 29.85 in NNE 1.4 mph 3.5 mph 93 % 0.00 in 26.0 W/m2 OVC
12:28 36.1 °F 34.3 °F 29.85 in NNE 0.3 mph 2.3 mph 93 % 0.00 in 21.0 W/m2 OVC
12:33 36.1 °F 34.3 °F 29.84 in NNE 2.2 mph 3.5 mph 93 % 0.00 in 47.0 W/m2 OVC
12:38 36.1 °F 34.3 °F 29.84 in Calm     93 % 0.00 in 39.0 W/m2 OVC
12:43 36.1 °F 34.3 °F 29.84 in North 0.8 mph 2.3 mph 93 % 0.00 in 47.0 W/m2 OVC
12:48 36.0 °F 34.2 °F 29.84 in NNE 3.6 mph 5.0 mph 93 % 0.01 in 65.0 W/m2 RA
12:53 35.9 °F 34.1 °F 29.84 in North 2.7 mph 4.6 mph 93 % 0.01 in 53.0 W/m2 RA
12:58 36.0 °F 34.2 °F 29.84 in NNE 2.7 mph 5.0 mph 93 % 0.01 in 46.0 W/m2 OVC
13:03 36.1 °F 34.5 °F 29.83 in NNE 2.0 mph 4.6 mph 94 % 0.01 in 54.0 W/m2 OVC
13:08 36.1 °F 34.5 °F 29.83 in Calm   3.5 mph 94 % 0.01 in 69.0 W/m2 OVC
13:13 36.1 °F 34.5 °F 29.83 in NNE 3.4 mph 4.6 mph 94 % 0.01 in 60.0 W/m2 OVC
13:18 36.2 °F 34.6 °F 29.82 in NNE 2.2 mph 3.5 mph 94 % 0.01 in 69.0 W/m2 OVC
13:23 36.3 °F 34.7 °F 29.82 in NNE 0.8 mph 2.3 mph 94 % 0.01 in 56.0 W/m2 OVC
13:29 36.4 °F 34.8 °F 29.82 in North 3.1 mph 4.6 mph 94 % 0.01 in 54.0 W/m2 OVC
13:34 36.3 °F 34.7 °F 29.82 in NNE 2.6 mph 4.6 mph 94 % 0.01 in 65.0 W/m2 OVC
13:39 36.3 °F 34.7 °F 29.81 in NNE 0.7 mph 3.5 mph 94 % 0.01 in 76.0 W/m2 OVC
13:44 36.3 °F 34.7 °F 29.81 in NNE 1.6 mph 6.0 mph 94 % 0.01 in 74.0 W/m2 OVC
13:49 36.3 °F 34.7 °F 29.81 in NNE 2.8 mph 4.6 mph 94 % 0.00 in 72.0 W/m2 OVC
13:54 36.5 °F 34.9 °F 29.80 in NNE 1.0 mph 3.5 mph 94 % 0.00 in 70.0 W/m2 OVC
13:59 36.6 °F 35.0 °F 29.80 in NNE 0.5 mph 3.5 mph 94 % 0.00 in 79.0 W/m2 OVC
14:04 36.7 °F 35.1 °F 29.79 in NNE 0.3 mph 4.6 mph 94 % 0.00 in 93.0 W/m2 OVC
14:09 36.8 °F 35.2 °F 29.79 in NE 2.7 mph 4.6 mph 94 % 0.00 in 95.0 W/m2 OVC
14:14 36.7 °F 35.1 °F 29.79 in NE 3.1 mph 4.6 mph 94 % 0.00 in 109.0 W/m2 OVC
14:19 36.9 °F 35.3 °F 29.79 in NE 3.0 mph 4.6 mph 94 % 0.00 in 113.0 W/m2 BKN
14:24 37.1 °F 35.5 °F 29.79 in NNE 2.9 mph 3.5 mph 94 % 0.00 in 77.0 W/m2 OVC
14:29 37.0 °F 35.4 °F 29.78 in NE 2.3 mph 3.5 mph 94 % 0.00 in 77.0 W/m2 OVC
14:34 37.2 °F 35.6 °F 29.79 in NNE 3.1 mph 3.5 mph 94 % 0.00 in 62.0 W/m2 OVC
14:39 37.2 °F 35.6 °F 29.78 in NNE 1.9 mph 3.5 mph 94 % 0.00 in 63.0 W/m2 OVC
14:44 37.2 °F 35.6 °F 29.78 in NNE 3.7 mph 5.0 mph 94 % 0.00 in 81.0 W/m2 OVC
14:49 37.3 °F 35.7 °F 29.77 in NNE 2.6 mph 5.0 mph 94 % 0.00 in 97.0 W/m2 BKN
14:54 37.6 °F 36.0 °F 29.77 in NNE 0.1 mph 1.2 mph 94 % 0.00 in 88.0 W/m2 BKN
14:59 37.6 °F 36.0 °F 29.76 in NNE 2.6 mph 5.8 mph 94 % 0.00 in 91.0 W/m2 OVC
15:04 37.8 °F 36.2 °F 29.76 in NE 5.9 mph 9.2 mph 94 % 0.00 in 95.0 W/m2 BKN
15:09 37.9 °F 36.3 °F 29.76 in NNE 2.8 mph 3.5 mph 94 % 0.00 in 83.0 W/m2 BKN
15:14 37.9 °F 36.3 °F 29.76 in NNE 3.6 mph 5.8 mph 94 % 0.00 in 84.0 W/m2 BKN
15:19 37.9 °F 36.3 °F 29.76 in NE 4.6 mph 5.8 mph 94 % 0.00 in 69.0 W/m2 OVC
15:24 38.1 °F 36.5 °F 29.77 in NNE 3.2 mph 4.6 mph 94 % 0.00 in 40.0 W/m2 OVC
15:29 38.2 °F 36.6 °F 29.77 in NNE 2.5 mph 4.0 mph 94 % 0.00 in 37.0 W/m2 OVC
15:34 38.2 °F 36.6 °F 29.77 in NNE 3.1 mph 4.0 mph 94 % 0.00 in 54.0 W/m2 OVC
15:39 38.2 °F 36.6 °F 29.77 in NNE 4.5 mph 5.8 mph 94 % 0.00 in 58.0 W/m2 OVC
15:44 38.1 °F 36.5 °F 29.77 in NNE 4.3 mph 8.1 mph 94 % 0.00 in 56.0 W/m2 BKN
15:49 38.0 °F 36.4 °F 29.78 in NNE 1.9 mph 3.5 mph 94 % 0.00 in 42.0 W/m2 OVC
15:54 38.0 °F 36.4 °F 29.77 in NNE 3.7 mph 6.0 mph 94 % 0.00 in 42.0 W/m2 OVC
15:59 37.9 °F 36.3 °F 29.77 in NE 4.5 mph 4.6 mph 94 % 0.00 in 37.0 W/m2 OVC
16:04 37.8 °F 36.2 °F 29.77 in NNE 4.9 mph 6.9 mph 94 % 0.00 in 40.0 W/m2 OVC
16:09 37.8 °F 36.2 °F 29.76 in NE 6.4 mph 9.2 mph 94 % 0.00 in 35.0 W/m2 OVC
16:14 37.8 °F 36.2 °F 29.76 in NE 3.8 mph 9.2 mph 94 % 0.00 in 33.0 W/m2 OVC
16:19 37.8 °F 36.2 °F 29.76 in NNE 3.3 mph 4.0 mph 94 % 0.00 in 26.0 W/m2 OVC
16:24 37.8 °F 36.2 °F 29.76 in NNE 5.4 mph 5.4 mph 94 % 0.00 in 25.0 W/m2 OVC
16:29 37.7 °F 36.1 °F 29.76 in NE 0.3 mph 3.5 mph 94 % 0.00 in 21.0 W/m2 OVC
16:34 37.8 °F 36.2 °F 29.75 in NNE 3.3 mph 6.0 mph 94 % 0.00 in 21.0 W/m2 OVC
16:40 37.7 °F 36.1 °F 29.75 in NE 2.1 mph 4.6 mph 94 % 0.00 in 21.0 W/m2 OVC
16:45 37.6 °F 36.0 °F 29.75 in NNE 3.3 mph 8.0 mph 94 % 0.00 in 16.0 W/m2 OVC
16:50 37.5 °F 35.9 °F 29.75 in NNE 4.6 mph 6.0 mph 94 % 0.00 in 11.0 W/m2 OVC
16:55 37.4 °F 35.8 °F 29.75 in North 2.9 mph 8.1 mph 94 % 0.00 in 9.0 W/m2 OVC
17:00 37.4 °F 35.8 °F 29.75 in NE 5.1 mph 5.8 mph 94 % 0.00 in 9.0 W/m2 OVC
17:05 37.4 °F 35.8 °F 29.74 in NNE 6.2 mph 8.1 mph 94 % 0.00 in 7.0 W/m2 OVC
17:10 37.4 °F 35.9 °F 29.74 in NNE 2.0 mph 9.0 mph 94 % 0.00 in 5.0 W/m2 OVC
17:15 37.5 °F 35.9 °F 29.74 in NNE 3.1 mph 4.0 mph 94 % 0.00 in 0.0 W/m2 OVC
17:20 37.5 °F 35.9 °F 29.74 in NNE 2.1 mph 8.1 mph 94 % 0.00 in 0.0 W/m2 OVC
17:25 37.5 °F 35.9 °F 29.74 in NE 2.2 mph 3.5 mph 94 % 0.00 in 0.0 W/m2 CLR
17:30 37.4 °F 35.8 °F 29.74 in NNE 5.9 mph 6.0 mph 94 % 0.00 in 0.0 W/m2 CLR
17:35 37.4 °F 35.8 °F 29.73 in NNE 4.5 mph 9.2 mph 94 % 0.00 in 0.0 W/m2 CLR
17:40 37.4 °F 35.8 °F 29.73 in NNE 7.2 mph 10.4 mph 94 % 0.00 in 0.0 W/m2 CLR
17:45 37.3 °F 35.7 °F 29.73 in NNE 2.6 mph 4.6 mph 94 % 0.00 in 0.0 W/m2 CLR
17:50 37.4 °F 36.1 °F 29.74 in NNE 3.0 mph 3.5 mph 95 % 0.00 in 0.0 W/m2 CLR
17:55 37.3 °F 35.7 °F 29.73 in NNE 7.7 mph 9.2 mph 94 % 0.00 in 0.0 W/m2 CLR
18:00 37.1 °F 35.5 °F 29.73 in NNE 7.3 mph 11.5 mph 94 % 0.00 in 0.0 W/m2 CLR
18:05 37.0 °F 35.4 °F 29.73 in NNE 3.3 mph 6.9 mph 94 % 0.00 in 0.0 W/m2 CLR
18:10 36.8 °F 35.2 °F 29.73 in NNE 3.5 mph 4.6 mph 94 % 0.00 in 0.0 W/m2 CLR
18:15 36.8 °F 35.2 °F 29.73 in NE 3.3 mph 6.0 mph 94 % 0.00 in 0.0 W/m2 CLR
18:20 36.7 °F 35.1 °F 29.72 in NE 5.6 mph 9.0 mph 94 % 0.00 in 0.0 W/m2 CLR
18:25 36.7 °F 35.4 °F 29.72 in NNE 6.9 mph 10.4 mph 95 % 0.00 in 0.0 W/m2 CLR
18:30 36.6 °F 35.3 °F 29.72 in NE 8.5 mph 11.5 mph 95 % 0.00 in 0.0 W/m2 CLR
18:35 36.6 °F 35.3 °F 29.72 in NE 6.9 mph 10.4 mph 95 % 0.00 in 0.0 W/m2 CLR
18:40 36.5 °F 35.2 °F 29.72 in NNE 5.3 mph 9.2 mph 95 % 0.00 in 0.0 W/m2 CLR
18:45 36.5 °F 35.2 °F 29.72 in NE 3.7 mph 9.2 mph 95 % 0.00 in 0.0 W/m2 CLR
18:50 36.4 °F 35.1 °F 29.71 in NNE 3.5 mph 5.8 mph 95 % 0.00 in 0.0 W/m2 CLR
18:55 36.3 °F 34.7 °F 29.71 in NE 5.6 mph 9.2 mph 94 % 0.00 in 0.0 W/m2 CLR
19:00 36.3 °F 34.7 °F 29.71 in NNE 4.9 mph 8.1 mph 94 % 0.00 in 0.0 W/m2 CLR
19:05 36.2 °F 34.6 °F 29.71 in NE 5.0 mph 10.4 mph 94 % 0.00 in 0.0 W/m2 CLR
19:10 36.3 °F 35.0 °F 29.70 in NNE 2.8 mph 4.6 mph 95 % 0.00 in 0.0 W/m2 CLR
19:15 36.3 °F 35.0 °F 29.70 in NE 0.6 mph 4.6 mph 95 % 0.00 in 0.0 W/m2 CLR
19:20 36.3 °F 35.0 °F 29.70 in NNE 2.4 mph 4.6 mph 95 % 0.00 in 0.0 W/m2 CLR
19:25 36.3 °F 35.0 °F 29.69 in NE 4.8 mph 5.8 mph 95 % 0.00 in 0.0 W/m2 CLR
19:30 36.3 °F 35.0 °F 29.69 in NE 5.4 mph 9.2 mph 95 % 0.00 in 0.0 W/m2 CLR
19:36 36.3 °F 35.0 °F 29.69 in NNE 2.1 mph 4.6 mph 95 % 0.00 in 0.0 W/m2 CLR
19:41 36.3 °F 35.0 °F 29.69 in NE 3.7 mph 5.8 mph 95 % 0.00 in 0.0 W/m2 CLR
19:46 36.3 °F 35.0 °F 29.69 in NE 4.7 mph 8.1 mph 95 % 0.00 in 0.0 W/m2 CLR
19:51 36.3 °F 35.0 °F 29.69 in NNE 3.4 mph 4.0 mph 95 % 0.00 in 0.0 W/m2 CLR
19:56 36.3 °F 35.0 °F 29.69 in NNE 5.3 mph 9.2 mph 95 % 0.00 in 0.0 W/m2 CLR
20:01 36.3 °F 35.0 °F 29.69 in NE 1.9 mph 4.0 mph 95 % 0.00 in 0.0 W/m2 CLR
20:06 36.4 °F 35.1 °F 29.68 in NE 1.9 mph 5.0 mph 95 % 0.00 in 0.0 W/m2 CLR
20:11 36.4 °F 35.1 °F 29.68 in NNE 4.6 mph 5.8 mph 95 % 0.00 in 0.0 W/m2 CLR
20:16 36.5 °F 35.2 °F 29.68 in NE 3.5 mph 5.0 mph 95 % 0.00 in 0.0 W/m2 CLR
20:21 36.5 °F 35.2 °F 29.68 in NNE 2.0 mph 3.5 mph 95 % 0.00 in 0.0 W/m2 CLR
20:26 36.5 °F 35.2 °F 29.68 in NNE 3.0 mph 4.6 mph 95 % 0.00 in 0.0 W/m2 CLR
20:31 36.4 °F 35.1 °F 29.67 in NNE 3.2 mph 5.0 mph 95 % 0.00 in 0.0 W/m2 CLR
20:36 36.4 °F 35.1 °F 29.67 in NNE 3.6 mph 5.8 mph 95 % 0.00 in 0.0 W/m2 CLR
20:41 36.4 °F 35.1 °F 29.67 in NNE 4.3 mph 6.0 mph 95 % 0.00 in 0.0 W/m2 CLR
20:46 36.3 °F 35.0 °F 29.67 in NE 2.1 mph 3.5 mph 95 % 0.00 in 0.0 W/m2 CLR
20:51 36.3 °F 35.0 °F 29.66 in NE 3.5 mph 3.5 mph 95 % 0.00 in 0.0 W/m2 CLR
20:56 36.3 °F 35.0 °F 29.66 in NE 3.4 mph 4.6 mph 95 % 0.00 in 0.0 W/m2 CLR
21:01 36.3 °F 35.0 °F 29.66 in NE 1.4 mph 3.5 mph 95 % 0.00 in 0.0 W/m2 CLR
21:06 36.2 °F 34.9 °F 29.66 in NNE 1.9 mph 3.5 mph 95 % 0.00 in 0.0 W/m2 CLR
21:11 36.2 °F 34.9 °F 29.65 in NNE 3.5 mph 4.6 mph 95 % 0.00 in 0.0 W/m2 CLR
21:16 36.2 °F 34.9 °F 29.65 in NE 3.2 mph 5.0 mph 95 % 0.00 in 0.0 W/m2 CLR
21:21 36.1 °F 34.8 °F 29.66 in NNE 1.8 mph 3.5 mph 95 % 0.00 in 0.0 W/m2 CLR
21:26 36.1 °F 34.8 °F 29.65 in NE 2.6 mph 4.6 mph 95 % 0.00 in 0.0 W/m2 CLR
21:31 36.1 °F 34.8 °F 29.65 in NE 2.5 mph 4.0 mph 95 % 0.00 in 0.0 W/m2 CLR
21:36 36.2 °F 34.9 °F 29.65 in NNE 0.7 mph 2.0 mph 95 % 0.00 in 0.0 W/m2 CLR
21:41 36.2 °F 34.9 °F 29.65 in NNE 1.8 mph 3.5 mph 95 % 0.00 in 0.0 W/m2 CLR
21:46 36.2 °F 34.9 °F 29.64 in NE 1.6 mph 3.5 mph 95 % 0.00 in 0.0 W/m2 CLR
21:51 36.2 °F 34.9 °F 29.64 in Calm   2.3 mph 95 % 0.00 in 0.0 W/m2 CLR
21:56 36.2 °F 34.9 °F 29.64 in NNE 3.0 mph 3.5 mph 95 % 0.00 in 0.0 W/m2 CLR
22:01 36.2 °F 34.9 °F 29.64 in NNE 0.3 mph 3.5 mph 95 % 0.00 in 0.0 W/m2 CLR
22:06 36.2 °F 34.9 °F 29.64 in NNE 1.4 mph 3.5 mph 95 % 0.00 in 0.0 W/m2 CLR
22:11 36.2 °F 34.9 °F 29.63 in NNE 2.7 mph 3.5 mph 95 % 0.00 in 0.0 W/m2 CLR
22:16 36.2 °F 34.9 °F 29.63 in NNE 1.6 mph 3.5 mph 95 % 0.00 in 0.0 W/m2 CLR
22:21 36.1 °F 34.8 °F 29.62 in NNE 1.2 mph 4.0 mph 95 % 0.00 in 0.0 W/m2 CLR
22:27 36.1 °F 34.8 °F 29.62 in NE 1.4 mph 3.5 mph 95 % 0.00 in 0.0 W/m2 CLR
22:32 36.1 °F 34.8 °F 29.62 in NNE 3.4 mph 3.5 mph 95 % 0.00 in 0.0 W/m2 CLR
22:37 36.1 °F 34.8 °F 29.62 in NNE 1.0 mph 4.0 mph 95 % 0.00 in 0.0 W/m2 CLR
22:42 36.0 °F 34.7 °F 29.62 in NE 1.9 mph 3.5 mph 95 % 0.00 in 0.0 W/m2 CLR
22:47 36.0 °F 34.7 °F 29.61 in NNE 2.4 mph 3.5 mph 95 % 0.00 in 0.0 W/m2 CLR
22:52 36.0 °F 34.7 °F 29.61 in NE 1.1 mph 3.5 mph 95 % 0.00 in 0.0 W/m2 CLR
22:57 36.1 °F 34.8 °F 29.61 in NNE 1.3 mph 2.3 mph 95 % 0.00 in 0.0 W/m2 CLR
23:02 36.1 °F 34.8 °F 29.61 in NNE 0.9 mph 3.5 mph 95 % 0.00 in 0.0 W/m2 CLR
23:07 36.1 °F 34.8 °F 29.61 in NNE 2.4 mph 3.5 mph 95 % 0.00 in 0.0 W/m2 CLR
23:12 36.0 °F 34.7 °F 29.61 in NNE 2.9 mph 3.5 mph 95 % 0.00 in 0.0 W/m2 CLR
23:17 36.0 °F 34.7 °F 29.60 in NNE 0.8 mph 2.3 mph 95 % 0.00 in 0.0 W/m2 CLR
23:22 35.9 °F 34.6 °F 29.60 in NNE 2.6 mph 3.5 mph 95 % 0.00 in 0.0 W/m2 CLR
23:27 36.0 °F 34.7 °F 29.60 in NNE 0.3 mph 1.2 mph 95 % 0.00 in 0.0 W/m2 CLR
23:32 36.0 °F 34.7 °F 29.59 in NNE 3.0 mph 3.5 mph 95 % 0.00 in 0.0 W/m2 CLR
23:37 36.0 °F 34.7 °F 29.59 in NNE 1.7 mph 3.5 mph 95 % 0.00 in 0.0 W/m2 CLR
23:42 36.0 °F 34.7 °F 29.59 in NNE 2.3 mph 3.5 mph 95 % 0.00 in 0.0 W/m2 CLR
23:47 36.0 °F 34.7 °F 29.59 in NNE 2.1 mph 3.5 mph 95 % 0.00 in 0.0 W/m2 CLR
23:52 35.9 °F 34.6 °F 29.59 in NNE 3.1 mph 4.6 mph 95 % 0.00 in 0.0 W/m2 CLR
23:57 35.9 °F 34.6 °F 29.58 in NNE 2.5 mph 3.5 mph 95 % 0.00 in 0.0 W/m2 CLR
Air Products Campus Weather
Compliments of Weather Underground - 3.5 mb